sensor_id;sensor_type;location;lat;lon;timestamp;temperature;humidity
46055;DHT22;31788;6.954;-71.872;2023-03-13T00:01:40;27.20;99.90
46055;DHT22;31788;6.954;-71.872;2023-03-13T00:04:08;27.10;99.90
46055;DHT22;31788;6.954;-71.872;2023-03-13T00:06:36;27.10;99.90
46055;DHT22;31788;6.954;-71.872;2023-03-13T00:09:05;27.10;99.90
46055;DHT22;31788;6.954;-71.872;2023-03-13T00:11:32;27.10;99.90
46055;DHT22;31788;6.954;-71.872;2023-03-13T00:14:00;27.10;99.90
46055;DHT22;31788;6.954;-71.872;2023-03-13T00:16:28;27.20;99.90
46055;DHT22;31788;6.954;-71.872;2023-03-13T00:18:56;27.10;99.90
46055;DHT22;31788;6.954;-71.872;2023-03-13T00:21:24;27.10;99.90
46055;DHT22;31788;6.954;-71.872;2023-03-13T00:23:51;27.10;99.90
46055;DHT22;31788;6.954;-71.872;2023-03-13T00:26:20;27.10;99.90
46055;DHT22;31788;6.954;-71.872;2023-03-13T00:28:48;27.10;99.90
46055;DHT22;31788;6.954;-71.872;2023-03-13T00:31:22;27.10;99.90
46055;DHT22;31788;6.954;-71.872;2023-03-13T00:33:54;27.10;99.90
46055;DHT22;31788;6.954;-71.872;2023-03-13T00:36:25;27.10;99.90
46055;DHT22;31788;6.954;-71.872;2023-03-13T00:38:53;27.10;99.90
46055;DHT22;31788;6.954;-71.872;2023-03-13T00:41:30;27.10;99.90
46055;DHT22;31788;6.954;-71.872;2023-03-13T00:43:58;27.10;99.90
46055;DHT22;31788;6.954;-71.872;2023-03-13T00:46:26;27.10;99.90
46055;DHT22;31788;6.954;-71.872;2023-03-13T00:48:53;27.10;99.90
46055;DHT22;31788;6.954;-71.872;2023-03-13T00:51:21;27.10;99.90
46055;DHT22;31788;6.954;-71.872;2023-03-13T00:53:52;27.10;99.90
46055;DHT22;31788;6.954;-71.872;2023-03-13T00:56:20;27.10;99.90
46055;DHT22;31788;6.954;-71.872;2023-03-13T00:58:48;27.10;99.90
46055;DHT22;31788;6.954;-71.872;2023-03-13T01:01:22;27.10;99.90
46055;DHT22;31788;6.954;-71.872;2023-03-13T01:03:54;27.10;99.90
46055;DHT22;31788;6.954;-71.872;2023-03-13T01:06:23;27.10;99.90
46055;DHT22;31788;6.954;-71.872;2023-03-13T01:08:53;27.00;99.90
46055;DHT22;31788;6.954;-71.872;2023-03-13T01:11:25;27.00;99.90
46055;DHT22;31788;6.954;-71.872;2023-03-13T01:13:57;27.00;99.90
46055;DHT22;31788;6.954;-71.872;2023-03-13T01:16:25;27.00;99.90
46055;DHT22;31788;6.954;-71.872;2023-03-13T01:18:54;27.00;99.90
46055;DHT22;31788;6.954;-71.872;2023-03-13T01:21:22;27.10;99.90
46055;DHT22;31788;6.954;-71.872;2023-03-13T01:23:50;27.00;99.90
46055;DHT22;31788;6.954;-71.872;2023-03-13T01:26:18;27.00;99.90
46055;DHT22;31788;6.954;-71.872;2023-03-13T01:28:46;27.00;99.90
46055;DHT22;31788;6.954;-71.872;2023-03-13T01:31:21;27.00;99.90
46055;DHT22;31788;6.954;-71.872;2023-03-13T01:33:50;27.00;99.90
46055;DHT22;31788;6.954;-71.872;2023-03-13T01:36:18;27.00;99.90
46055;DHT22;31788;6.954;-71.872;2023-03-13T01:38:50;27.00;99.90
46055;DHT22;31788;6.954;-71.872;2023-03-13T01:41:19;26.90;99.90
46055;DHT22;31788;6.954;-71.872;2023-03-13T01:43:46;26.90;99.90
46055;DHT22;31788;6.954;-71.872;2023-03-13T01:48:56;27.00;99.90
46055;DHT22;31788;6.954;-71.872;2023-03-13T01:51:29;26.90;99.90
46055;DHT22;31788;6.954;-71.872;2023-03-13T01:56:39;26.90;99.90
46055;DHT22;31788;6.954;-71.872;2023-03-13T01:59:13;26.90;99.90
46055;DHT22;31788;6.954;-71.872;2023-03-13T02:01:41;26.90;99.90
46055;DHT22;31788;6.954;-71.872;2023-03-13T02:04:09;26.90;99.90
46055;DHT22;31788;6.954;-71.872;2023-03-13T02:06:38;26.90;99.90
46055;DHT22;31788;6.954;-71.872;2023-03-13T02:09:13;26.80;99.90
46055;DHT22;31788;6.954;-71.872;2023-03-13T02:14:16;26.80;99.90
46055;DHT22;31788;6.954;-71.872;2023-03-13T02:16:44;26.80;99.90
46055;DHT22;31788;6.954;-71.872;2023-03-13T02:22:28;26.80;99.90
46055;DHT22;31788;6.954;-71.872;2023-03-13T02:27:43;26.80;99.90
46055;DHT22;31788;6.954;-71.872;2023-03-13T02:30:11;26.80;99.90
46055;DHT22;31788;6.954;-71.872;2023-03-13T02:32:42;26.80;99.90
46055;DHT22;31788;6.954;-71.872;2023-03-13T02:35:12;26.80;99.90
46055;DHT22;31788;6.954;-71.872;2023-03-13T02:37:41;26.90;99.90
46055;DHT22;31788;6.954;-71.872;2023-03-13T02:40:12;26.80;99.90
46055;DHT22;31788;6.954;-71.872;2023-03-13T02:42:42;26.90;99.90
46055;DHT22;31788;6.954;-71.872;2023-03-13T02:45:13;26.80;99.90
46055;DHT22;31788;6.954;-71.872;2023-03-13T02:47:40;26.80;99.80
46055;DHT22;31788;6.954;-71.872;2023-03-13T02:50:07;26.80;99.80
46055;DHT22;31788;6.954;-71.872;2023-03-13T02:52:38;26.80;99.70
46055;DHT22;31788;6.954;-71.872;2023-03-13T02:55:11;26.90;99.90
46055;DHT22;31788;6.954;-71.872;2023-03-13T02:57:43;26.80;99.70
46055;DHT22;31788;6.954;-71.872;2023-03-13T03:00:10;26.80;99.60
46055;DHT22;31788;6.954;-71.872;2023-03-13T03:02:38;26.80;99.60
46055;DHT22;31788;6.954;-71.872;2023-03-13T03:05:05;26.80;99.60
46055;DHT22;31788;6.954;-71.872;2023-03-13T03:07:32;26.80;99.50
46055;DHT22;31788;6.954;-71.872;2023-03-13T03:09:58;26.80;99.50
46055;DHT22;31788;6.954;-71.872;2023-03-13T03:12:25;26.80;99.60
46055;DHT22;31788;6.954;-71.872;2023-03-13T03:14:51;26.80;99.60
46055;DHT22;31788;6.954;-71.872;2023-03-13T03:17:18;26.80;99.50
46055;DHT22;31788;6.954;-71.872;2023-03-13T03:19:45;26.80;99.60
46055;DHT22;31788;6.954;-71.872;2023-03-13T03:22:11;26.80;99.40
46055;DHT22;31788;6.954;-71.872;2023-03-13T03:24:38;26.80;99.50
46055;DHT22;31788;6.954;-71.872;2023-03-13T03:27:04;26.80;99.40
46055;DHT22;31788;6.954;-71.872;2023-03-13T03:29:32;26.80;99.50
46055;DHT22;31788;6.954;-71.872;2023-03-13T03:31:59;26.80;99.40
46055;DHT22;31788;6.954;-71.872;2023-03-13T03:34:25;26.80;99.40
46055;DHT22;31788;6.954;-71.872;2023-03-13T03:36:52;26.80;99.20
46055;DHT22;31788;6.954;-71.872;2023-03-13T03:39:19;26.80;99.20
46055;DHT22;31788;6.954;-71.872;2023-03-13T03:41:45;26.80;99.20
46055;DHT22;31788;6.954;-71.872;2023-03-13T03:44:12;26.80;99.20
46055;DHT22;31788;6.954;-71.872;2023-03-13T03:46:38;26.70;99.00
46055;DHT22;31788;6.954;-71.872;2023-03-13T03:49:05;26.80;99.00
46055;DHT22;31788;6.954;-71.872;2023-03-13T03:51:32;26.70;99.00
46055;DHT22;31788;6.954;-71.872;2023-03-13T03:53:58;26.70;99.00
46055;DHT22;31788;6.954;-71.872;2023-03-13T03:56:25;26.70;98.90
46055;DHT22;31788;6.954;-71.872;2023-03-13T03:58:52;26.70;98.80
46055;DHT22;31788;6.954;-71.872;2023-03-13T04:01:18;26.80;98.90
46055;DHT22;31788;6.954;-71.872;2023-03-13T04:03:45;26.70;98.90
46055;DHT22;31788;6.954;-71.872;2023-03-13T04:06:13;26.70;98.80
46055;DHT22;31788;6.954;-71.872;2023-03-13T04:08:39;26.70;98.80
46055;DHT22;31788;6.954;-71.872;2023-03-13T04:11:06;26.70;98.70
46055;DHT22;31788;6.954;-71.872;2023-03-13T04:13:33;26.70;98.60
46055;DHT22;31788;6.954;-71.872;2023-03-13T04:16:04;26.70;98.70
46055;DHT22;31788;6.954;-71.872;2023-03-13T04:18:31;26.70;98.60
46055;DHT22;31788;6.954;-71.872;2023-03-13T04:21:02;26.70;98.70
46055;DHT22;31788;6.954;-71.872;2023-03-13T04:23:29;26.70;98.70
46055;DHT22;31788;6.954;-71.872;2023-03-13T04:25:56;26.70;98.80
46055;DHT22;31788;6.954;-71.872;2023-03-13T04:28:22;26.70;98.60
46055;DHT22;31788;6.954;-71.872;2023-03-13T04:30:51;26.70;98.80
46055;DHT22;31788;6.954;-71.872;2023-03-13T04:33:23;26.70;98.70
46055;DHT22;31788;6.954;-71.872;2023-03-13T04:35:49;26.80;98.70
46055;DHT22;31788;6.954;-71.872;2023-03-13T04:38:16;26.70;98.70
46055;DHT22;31788;6.954;-71.872;2023-03-13T04:40:43;26.70;98.70
46055;DHT22;31788;6.954;-71.872;2023-03-13T04:43:09;26.70;98.70
46055;DHT22;31788;6.954;-71.872;2023-03-13T04:45:36;26.70;98.70
46055;DHT22;31788;6.954;-71.872;2023-03-13T04:48:02;26.70;98.60
46055;DHT22;31788;6.954;-71.872;2023-03-13T04:50:29;26.70;98.70
46055;DHT22;31788;6.954;-71.872;2023-03-13T04:52:55;26.70;98.60
46055;DHT22;31788;6.954;-71.872;2023-03-13T04:55:22;26.70;98.60
46055;DHT22;31788;6.954;-71.872;2023-03-13T04:57:49;26.70;98.70
46055;DHT22;31788;6.954;-71.872;2023-03-13T05:00:15;26.70;98.60
46055;DHT22;31788;6.954;-71.872;2023-03-13T05:02:42;26.60;98.70
46055;DHT22;31788;6.954;-71.872;2023-03-13T05:05:09;26.60;98.70
46055;DHT22;31788;6.954;-71.872;2023-03-13T05:07:35;26.60;98.80
46055;DHT22;31788;6.954;-71.872;2023-03-13T05:10:02;26.60;98.70
46055;DHT22;31788;6.954;-71.872;2023-03-13T05:12:28;26.60;98.70
46055;DHT22;31788;6.954;-71.872;2023-03-13T05:14:55;26.60;98.80
46055;DHT22;31788;6.954;-71.872;2023-03-13T05:17:21;26.60;98.70
46055;DHT22;31788;6.954;-71.872;2023-03-13T05:19:48;26.60;98.70
46055;DHT22;31788;6.954;-71.872;2023-03-13T05:22:14;26.60;98.90
46055;DHT22;31788;6.954;-71.872;2023-03-13T05:24:41;26.60;98.80
46055;DHT22;31788;6.954;-71.872;2023-03-13T05:27:08;26.60;98.80
46055;DHT22;31788;6.954;-71.872;2023-03-13T05:29:34;26.60;98.60
46055;DHT22;31788;6.954;-71.872;2023-03-13T05:32:01;26.60;98.60
46055;DHT22;31788;6.954;-71.872;2023-03-13T05:34:27;26.60;99.00
46055;DHT22;31788;6.954;-71.872;2023-03-13T05:36:54;26.50;99.00
46055;DHT22;31788;6.954;-71.872;2023-03-13T05:39:20;26.50;98.90
46055;DHT22;31788;6.954;-71.872;2023-03-13T05:41:47;26.60;98.90
46055;DHT22;31788;6.954;-71.872;2023-03-13T05:44:14;26.50;98.70
46055;DHT22;31788;6.954;-71.872;2023-03-13T05:46:40;26.50;98.70
46055;DHT22;31788;6.954;-71.872;2023-03-13T05:49:07;26.50;98.60
46055;DHT22;31788;6.954;-71.872;2023-03-13T05:51:33;26.50;98.50
46055;DHT22;31788;6.954;-71.872;2023-03-13T05:54:00;26.50;98.50
46055;DHT22;31788;6.954;-71.872;2023-03-13T05:56:26;26.50;98.50
46055;DHT22;31788;6.954;-71.872;2023-03-13T05:58:53;26.50;98.50
46055;DHT22;31788;6.954;-71.872;2023-03-13T06:01:19;26.50;98.50
46055;DHT22;31788;6.954;-71.872;2023-03-13T06:03:46;26.50;98.40
46055;DHT22;31788;6.954;-71.872;2023-03-13T06:06:13;26.50;98.40
46055;DHT22;31788;6.954;-71.872;2023-03-13T06:08:39;26.50;98.50
46055;DHT22;31788;6.954;-71.872;2023-03-13T06:11:06;26.50;98.30
46055;DHT22;31788;6.954;-71.872;2023-03-13T06:13:32;26.50;98.30
46055;DHT22;31788;6.954;-71.872;2023-03-13T06:15:59;26.50;98.40
46055;DHT22;31788;6.954;-71.872;2023-03-13T06:18:26;26.50;98.70
46055;DHT22;31788;6.954;-71.872;2023-03-13T06:20:58;26.50;98.70
46055;DHT22;31788;6.954;-71.872;2023-03-13T06:23:25;26.40;98.50
46055;DHT22;31788;6.954;-71.872;2023-03-13T06:25:53;26.50;98.40
46055;DHT22;31788;6.954;-71.872;2023-03-13T06:28:19;26.40;98.20
46055;DHT22;31788;6.954;-71.872;2023-03-13T06:30:46;26.50;98.10
46055;DHT22;31788;6.954;-71.872;2023-03-13T06:33:13;26.40;98.20
46055;DHT22;31788;6.954;-71.872;2023-03-13T06:35:41;26.40;98.30
46055;DHT22;31788;6.954;-71.872;2023-03-13T06:38:09;26.40;98.40
46055;DHT22;31788;6.954;-71.872;2023-03-13T06:40:36;26.40;98.30
46055;DHT22;31788;6.954;-71.872;2023-03-13T06:43:03;26.40;98.40
46055;DHT22;31788;6.954;-71.872;2023-03-13T06:45:29;26.40;98.20
46055;DHT22;31788;6.954;-71.872;2023-03-13T06:47:56;26.40;98.10
46055;DHT22;31788;6.954;-71.872;2023-03-13T06:50:22;26.40;98.20
46055;DHT22;31788;6.954;-71.872;2023-03-13T06:52:49;26.30;98.20
46055;DHT22;31788;6.954;-71.872;2023-03-13T06:55:15;26.40;98.40
46055;DHT22;31788;6.954;-71.872;2023-03-13T06:57:42;26.30;98.40
46055;DHT22;31788;6.954;-71.872;2023-03-13T07:00:12;26.40;98.30
46055;DHT22;31788;6.954;-71.872;2023-03-13T07:02:38;26.40;98.10
46055;DHT22;31788;6.954;-71.872;2023-03-13T07:05:05;26.40;98.50
46055;DHT22;31788;6.954;-71.872;2023-03-13T07:07:32;26.40;98.40
46055;DHT22;31788;6.954;-71.872;2023-03-13T07:09:59;26.40;98.40
46055;DHT22;31788;6.954;-71.872;2023-03-13T07:12:26;26.40;98.20
46055;DHT22;31788;6.954;-71.872;2023-03-13T07:14:52;26.40;98.40
46055;DHT22;31788;6.954;-71.872;2023-03-13T07:17:19;26.40;98.50
46055;DHT22;31788;6.954;-71.872;2023-03-13T07:19:45;26.40;98.50
46055;DHT22;31788;6.954;-71.872;2023-03-13T07:22:12;26.40;98.50
46055;DHT22;31788;6.954;-71.872;2023-03-13T07:24:38;26.40;98.50
46055;DHT22;31788;6.954;-71.872;2023-03-13T07:27:05;26.30;98.70
46055;DHT22;31788;6.954;-71.872;2023-03-13T07:29:32;26.30;98.60
46055;DHT22;31788;6.954;-71.872;2023-03-13T07:31:58;26.30;98.70
46055;DHT22;31788;6.954;-71.872;2023-03-13T07:34:25;26.30;98.70
46055;DHT22;31788;6.954;-71.872;2023-03-13T07:36:51;26.30;98.70
46055;DHT22;31788;6.954;-71.872;2023-03-13T07:39:19;26.40;98.60
46055;DHT22;31788;6.954;-71.872;2023-03-13T07:41:46;26.30;98.60
46055;DHT22;31788;6.954;-71.872;2023-03-13T07:44:12;26.30;99.00
46055;DHT22;31788;6.954;-71.872;2023-03-13T07:46:39;26.40;98.60
46055;DHT22;31788;6.954;-71.872;2023-03-13T07:49:05;26.40;98.50
46055;DHT22;31788;6.954;-71.872;2023-03-13T07:51:32;26.30;98.50
46055;DHT22;31788;6.954;-71.872;2023-03-13T07:53:58;26.40;98.30
46055;DHT22;31788;6.954;-71.872;2023-03-13T07:56:25;26.40;98.30
46055;DHT22;31788;6.954;-71.872;2023-03-13T07:58:51;26.40;98.20
46055;DHT22;31788;6.954;-71.872;2023-03-13T08:01:26;26.40;98.10
46055;DHT22;31788;6.954;-71.872;2023-03-13T08:03:53;26.40;98.10
46055;DHT22;31788;6.954;-71.872;2023-03-13T08:06:25;26.30;98.20
46055;DHT22;31788;6.954;-71.872;2023-03-13T08:08:56;26.40;98.00
46055;DHT22;31788;6.954;-71.872;2023-03-13T08:11:24;26.40;98.00
46055;DHT22;31788;6.954;-71.872;2023-03-13T08:13:52;26.30;98.00
46055;DHT22;31788;6.954;-71.872;2023-03-13T08:16:21;26.30;97.90
46055;DHT22;31788;6.954;-71.872;2023-03-13T08:18:53;26.40;98.20
46055;DHT22;31788;6.954;-71.872;2023-03-13T08:21:32;26.40;98.10
46055;DHT22;31788;6.954;-71.872;2023-03-13T08:24:01;26.30;97.80
46055;DHT22;31788;6.954;-71.872;2023-03-13T08:26:31;26.30;97.90
46055;DHT22;31788;6.954;-71.872;2023-03-13T08:29:02;26.30;97.90
46055;DHT22;31788;6.954;-71.872;2023-03-13T08:31:35;26.30;97.90
46055;DHT22;31788;6.954;-71.872;2023-03-13T08:34:02;26.30;97.90
46055;DHT22;31788;6.954;-71.872;2023-03-13T08:36:31;26.30;97.90
46055;DHT22;31788;6.954;-71.872;2023-03-13T08:39:08;26.30;97.90
46055;DHT22;31788;6.954;-71.872;2023-03-13T08:41:35;26.30;97.90
46055;DHT22;31788;6.954;-71.872;2023-03-13T08:44:03;26.30;97.60
46055;DHT22;31788;6.954;-71.872;2023-03-13T08:46:31;26.30;97.60
46055;DHT22;31788;6.954;-71.872;2023-03-13T08:48:58;26.30;97.40
46055;DHT22;31788;6.954;-71.872;2023-03-13T08:51:27;26.30;97.40
46055;DHT22;31788;6.954;-71.872;2023-03-13T08:53:54;26.30;97.20
46055;DHT22;31788;6.954;-71.872;2023-03-13T08:56:23;26.30;97.20
46055;DHT22;31788;6.954;-71.872;2023-03-13T08:58:52;26.40;97.20
46055;DHT22;31788;6.954;-71.872;2023-03-13T09:01:20;26.30;97.10
46055;DHT22;31788;6.954;-71.872;2023-03-13T09:03:47;26.30;97.30
46055;DHT22;31788;6.954;-71.872;2023-03-13T09:06:13;26.30;97.50
46055;DHT22;31788;6.954;-71.872;2023-03-13T09:08:41;26.30;97.60
46055;DHT22;31788;6.954;-71.872;2023-03-13T09:11:11;26.30;97.60
46055;DHT22;31788;6.954;-71.872;2023-03-13T09:13:42;26.30;97.60
46055;DHT22;31788;6.954;-71.872;2023-03-13T09:16:11;26.30;97.90
46055;DHT22;31788;6.954;-71.872;2023-03-13T09:18:38;26.30;97.90
46055;DHT22;31788;6.954;-71.872;2023-03-13T09:21:08;26.20;97.90
46055;DHT22;31788;6.954;-71.872;2023-03-13T09:23:35;26.20;98.00
46055;DHT22;31788;6.954;-71.872;2023-03-13T09:26:02;26.20;98.20
46055;DHT22;31788;6.954;-71.872;2023-03-13T09:28:29;26.20;98.20
46055;DHT22;31788;6.954;-71.872;2023-03-13T09:31:08;26.20;98.20
46055;DHT22;31788;6.954;-71.872;2023-03-13T09:33:35;26.20;98.30
46055;DHT22;31788;6.954;-71.872;2023-03-13T09:36:02;26.20;98.20
46055;DHT22;31788;6.954;-71.872;2023-03-13T09:38:29;26.20;98.40
46055;DHT22;31788;6.954;-71.872;2023-03-13T09:41:23;26.10;98.20
46055;DHT22;31788;6.954;-71.872;2023-03-13T09:44:10;26.10;98.30
46055;DHT22;31788;6.954;-71.872;2023-03-13T09:46:52;26.10;98.50
46055;DHT22;31788;6.954;-71.872;2023-03-13T09:54:44;26.10;98.80
46055;DHT22;31788;6.954;-71.872;2023-03-13T09:57:17;26.10;98.80
46055;DHT22;31788;6.954;-71.872;2023-03-13T09:59:54;26.10;98.70
46055;DHT22;31788;6.954;-71.872;2023-03-13T10:02:31;26.10;98.60
46055;DHT22;31788;6.954;-71.872;2023-03-13T10:05:15;26.10;98.20
46055;DHT22;31788;6.954;-71.872;2023-03-13T10:07:44;26.10;98.10
46055;DHT22;31788;6.954;-71.872;2023-03-13T10:10:24;26.20;98.20
46055;DHT22;31788;6.954;-71.872;2023-03-13T10:13:00;26.20;98.20
46055;DHT22;31788;6.954;-71.872;2023-03-13T10:15:45;26.20;98.00
46055;DHT22;31788;6.954;-71.872;2023-03-13T10:18:20;26.20;97.90
46055;DHT22;31788;6.954;-71.872;2023-03-13T10:21:00;26.20;97.80
46055;DHT22;31788;6.954;-71.872;2023-03-13T10:23:40;26.20;97.80
46055;DHT22;31788;6.954;-71.872;2023-03-13T10:26:31;26.20;97.80
46055;DHT22;31788;6.954;-71.872;2023-03-13T10:29:19;26.20;97.80
46055;DHT22;31788;6.954;-71.872;2023-03-13T10:31:56;26.20;97.70
46055;DHT22;31788;6.954;-71.872;2023-03-13T10:34:25;26.20;97.70
46055;DHT22;31788;6.954;-71.872;2023-03-13T10:36:58;26.20;97.80
46055;DHT22;31788;6.954;-71.872;2023-03-13T10:39:27;26.20;97.80
46055;DHT22;31788;6.954;-71.872;2023-03-13T10:42:07;26.20;97.90
46055;DHT22;31788;6.954;-71.872;2023-03-13T10:44:35;26.20;97.80
46055;DHT22;31788;6.954;-71.872;2023-03-13T10:47:02;26.30;97.90
46055;DHT22;31788;6.954;-71.872;2023-03-13T10:49:31;26.20;97.90
46055;DHT22;31788;6.954;-71.872;2023-03-13T10:52:03;26.20;97.80
46055;DHT22;31788;6.954;-71.872;2023-03-13T10:54:33;26.30;97.80
46055;DHT22;31788;6.954;-71.872;2023-03-13T10:57:25;26.30;97.90
46055;DHT22;31788;6.954;-71.872;2023-03-13T10:59:53;26.20;97.70
46055;DHT22;31788;6.954;-71.872;2023-03-13T11:02:32;26.20;97.60
46055;DHT22;31788;6.954;-71.872;2023-03-13T11:05:01;26.20;97.60
46055;DHT22;31788;6.954;-71.872;2023-03-13T11:07:35;26.20;97.60
46055;DHT22;31788;6.954;-71.872;2023-03-13T11:10:19;26.30;97.50
46055;DHT22;31788;6.954;-71.872;2023-03-13T11:12:51;26.30;97.50
46055;DHT22;31788;6.954;-71.872;2023-03-13T11:15:28;26.30;97.40
46055;DHT22;31788;6.954;-71.872;2023-03-13T11:20:46;26.30;97.30
46055;DHT22;31788;6.954;-71.872;2023-03-13T11:23:25;26.20;97.40
46055;DHT22;31788;6.954;-71.872;2023-03-13T11:28:27;26.30;97.50
46055;DHT22;31788;6.954;-71.872;2023-03-13T11:36:59;26.30;97.50
46055;DHT22;31788;6.954;-71.872;2023-03-13T11:42:37;26.30;97.60
46055;DHT22;31788;6.954;-71.872;2023-03-13T11:45:32;26.40;97.50
46055;DHT22;31788;6.954;-71.872;2023-03-13T11:57:02;26.40;97.70
46055;DHT22;31788;6.954;-71.872;2023-03-13T12:02:35;26.40;98.10
46055;DHT22;31788;6.954;-71.872;2023-03-13T12:05:13;26.40;98.10
46055;DHT22;31788;6.954;-71.872;2023-03-13T12:07:41;26.40;98.20
46055;DHT22;31788;6.954;-71.872;2023-03-13T12:10:15;26.40;98.30
46055;DHT22;31788;6.954;-71.872;2023-03-13T12:13:01;26.50;98.30
46055;DHT22;31788;6.954;-71.872;2023-03-13T12:21:02;26.50;98.20
46055;DHT22;31788;6.954;-71.872;2023-03-13T12:32:34;26.50;98.50
46055;DHT22;31788;6.954;-71.872;2023-03-13T12:35:19;26.50;98.50
46055;DHT22;31788;6.954;-71.872;2023-03-13T12:37:54;26.60;98.60
46055;DHT22;31788;6.954;-71.872;2023-03-13T12:43:30;26.60;98.60
46055;DHT22;31788;6.954;-71.872;2023-03-13T13:00:06;26.60;99.00
46055;DHT22;31788;6.954;-71.872;2023-03-13T13:02:40;26.70;99.10
46055;DHT22;31788;6.954;-71.872;2023-03-13T13:05:18;26.60;99.10
46055;DHT22;31788;6.954;-71.872;2023-03-13T13:07:53;26.60;99.00
46055;DHT22;31788;6.954;-71.872;2023-03-13T13:10:22;26.70;99.10
46055;DHT22;31788;6.954;-71.872;2023-03-13T13:16:18;26.70;99.30
46055;DHT22;31788;6.954;-71.872;2023-03-13T13:18:46;26.60;98.90
46055;DHT22;31788;6.954;-71.872;2023-03-13T13:23:44;26.60;98.80
46055;DHT22;31788;6.954;-71.872;2023-03-13T13:39:50;26.30;99.20
46055;DHT22;31788;6.954;-71.872;2023-03-13T13:47:29;26.20;99.30
46055;DHT22;31788;6.954;-71.872;2023-03-13T13:49:58;26.20;99.30
46055;DHT22;31788;6.954;-71.872;2023-03-13T13:52:41;26.20;99.40
46055;DHT22;31788;6.954;-71.872;2023-03-13T13:55:30;26.20;99.40
46055;DHT22;31788;6.954;-71.872;2023-03-13T13:58:05;26.20;99.50
46055;DHT22;31788;6.954;-71.872;2023-03-13T14:00:49;26.10;99.70
46055;DHT22;31788;6.954;-71.872;2023-03-13T14:03:23;26.10;99.90
46055;DHT22;31788;6.954;-71.872;2023-03-13T14:06:02;26.10;99.90
46055;DHT22;31788;6.954;-71.872;2023-03-13T14:08:38;26.00;99.90
46055;DHT22;31788;6.954;-71.872;2023-03-13T14:11:24;26.10;99.90
46055;DHT22;31788;6.954;-71.872;2023-03-13T14:16:38;26.00;99.90
46055;DHT22;31788;6.954;-71.872;2023-03-13T14:22:03;26.10;99.90
46055;DHT22;31788;6.954;-71.872;2023-03-13T14:24:30;26.10;99.90
46055;DHT22;31788;6.954;-71.872;2023-03-13T14:26:56;26.10;99.90
46055;DHT22;31788;6.954;-71.872;2023-03-13T14:29:23;26.20;99.90
46055;DHT22;31788;6.954;-71.872;2023-03-13T14:31:55;26.10;99.90
46055;DHT22;31788;6.954;-71.872;2023-03-13T14:34:24;26.10;99.90
46055;DHT22;31788;6.954;-71.872;2023-03-13T14:37:01;26.10;99.90
46055;DHT22;31788;6.954;-71.872;2023-03-13T14:42:09;26.10;99.90
46055;DHT22;31788;6.954;-71.872;2023-03-13T14:44:37;26.00;99.90
46055;DHT22;31788;6.954;-71.872;2023-03-13T14:47:10;26.00;99.90
46055;DHT22;31788;6.954;-71.872;2023-03-13T14:49:44;26.00;99.90
46055;DHT22;31788;6.954;-71.872;2023-03-13T14:52:26;25.90;99.90
46055;DHT22;31788;6.954;-71.872;2023-03-13T14:54:59;25.90;99.90
46055;DHT22;31788;6.954;-71.872;2023-03-13T14:57:33;25.90;99.90
46055;DHT22;31788;6.954;-71.872;2023-03-13T15:08:39;25.90;99.90
46055;DHT22;31788;6.954;-71.872;2023-03-13T15:11:29;25.90;99.90
46055;DHT22;31788;6.954;-71.872;2023-03-13T15:13:57;25.90;99.90
46055;DHT22;31788;6.954;-71.872;2023-03-13T15:16:25;25.90;99.90
46055;DHT22;31788;6.954;-71.872;2023-03-13T15:18:52;25.90;99.90
46055;DHT22;31788;6.954;-71.872;2023-03-13T15:21:25;25.90;99.90
46055;DHT22;31788;6.954;-71.872;2023-03-13T15:24:11;25.90;99.90
46055;DHT22;31788;6.954;-71.872;2023-03-13T15:26:38;25.90;99.90
46055;DHT22;31788;6.954;-71.872;2023-03-13T15:29:05;25.90;99.90
46055;DHT22;31788;6.954;-71.872;2023-03-13T15:31:31;25.90;99.90
46055;DHT22;31788;6.954;-71.872;2023-03-13T15:33:59;25.90;99.90
46055;DHT22;31788;6.954;-71.872;2023-03-13T15:36:27;25.90;99.90
46055;DHT22;31788;6.954;-71.872;2023-03-13T15:38:54;25.90;99.90
46055;DHT22;31788;6.954;-71.872;2023-03-13T15:41:21;25.90;99.90
46055;DHT22;31788;6.954;-71.872;2023-03-13T15:43:48;26.00;99.90
46055;DHT22;31788;6.954;-71.872;2023-03-13T15:46:20;26.00;99.90
46055;DHT22;31788;6.954;-71.872;2023-03-13T15:48:47;26.00;99.90
46055;DHT22;31788;6.954;-71.872;2023-03-13T15:51:15;26.10;99.90
46055;DHT22;31788;6.954;-71.872;2023-03-13T15:53:42;26.00;99.90
46055;DHT22;31788;6.954;-71.872;2023-03-13T15:56:19;26.00;99.90
46055;DHT22;31788;6.954;-71.872;2023-03-13T15:58:48;26.00;99.90
46055;DHT22;31788;6.954;-71.872;2023-03-13T16:01:17;26.00;99.90
46055;DHT22;31788;6.954;-71.872;2023-03-13T16:03:44;26.10;99.90
46055;DHT22;31788;6.954;-71.872;2023-03-13T16:06:21;26.10;99.90
46055;DHT22;31788;6.954;-71.872;2023-03-13T16:09:00;26.10;99.90
46055;DHT22;31788;6.954;-71.872;2023-03-13T16:11:28;26.10;99.90
46055;DHT22;31788;6.954;-71.872;2023-03-13T16:13:55;26.10;99.90
46055;DHT22;31788;6.954;-71.872;2023-03-13T16:16:27;26.10;99.90
46055;DHT22;31788;6.954;-71.872;2023-03-13T16:18:56;26.20;99.90
46055;DHT22;31788;6.954;-71.872;2023-03-13T16:21:33;26.20;99.90
46055;DHT22;31788;6.954;-71.872;2023-03-13T16:24:00;26.20;99.90
46055;DHT22;31788;6.954;-71.872;2023-03-13T16:26:29;26.20;99.90
46055;DHT22;31788;6.954;-71.872;2023-03-13T16:28:56;26.20;99.90
46055;DHT22;31788;6.954;-71.872;2023-03-13T16:31:28;26.20;99.90
46055;DHT22;31788;6.954;-71.872;2023-03-13T16:33:56;26.30;99.90
46055;DHT22;31788;6.954;-71.872;2023-03-13T16:36:26;26.30;99.90
46055;DHT22;31788;6.954;-71.872;2023-03-13T16:38:53;26.30;99.90
46055;DHT22;31788;6.954;-71.872;2023-03-13T16:41:22;26.40;99.90
46055;DHT22;31788;6.954;-71.872;2023-03-13T16:43:49;26.40;99.90
46055;DHT22;31788;6.954;-71.872;2023-03-13T16:46:19;26.50;99.90
46055;DHT22;31788;6.954;-71.872;2023-03-13T16:48:47;26.50;99.90
46055;DHT22;31788;6.954;-71.872;2023-03-13T16:51:22;26.50;99.90
46055;DHT22;31788;6.954;-71.872;2023-03-13T16:53:51;26.50;99.90
46055;DHT22;31788;6.954;-71.872;2023-03-13T16:58:51;26.60;99.90
46055;DHT22;31788;6.954;-71.872;2023-03-13T17:01:19;26.70;99.90
46055;DHT22;31788;6.954;-71.872;2023-03-13T17:03:46;26.70;99.90
46055;DHT22;31788;6.954;-71.872;2023-03-13T17:06:22;26.70;99.90
46055;DHT22;31788;6.954;-71.872;2023-03-13T17:08:49;26.70;99.90
46055;DHT22;31788;6.954;-71.872;2023-03-13T17:11:18;26.70;99.90
46055;DHT22;31788;6.954;-71.872;2023-03-13T17:13:48;26.70;99.90
46055;DHT22;31788;6.954;-71.872;2023-03-13T17:16:22;26.70;99.90
46055;DHT22;31788;6.954;-71.872;2023-03-13T17:18:51;26.80;99.90
46055;DHT22;31788;6.954;-71.872;2023-03-13T17:21:22;26.80;99.90
46055;DHT22;31788;6.954;-71.872;2023-03-13T17:23:50;26.80;99.90
46055;DHT22;31788;6.954;-71.872;2023-03-13T17:26:27;26.80;99.90
46055;DHT22;31788;6.954;-71.872;2023-03-13T17:28:55;26.80;99.70
46055;DHT22;31788;6.954;-71.872;2023-03-13T17:31:24;26.80;99.70
46055;DHT22;31788;6.954;-71.872;2023-03-13T17:33:50;26.80;99.70